Kryvyi Rih, Ukraine
Current Conditions -  °F | °C
As of 11:00 PM on Saturday 20 Dec 2014 (Local Time) from UKDR Reporting Station
Haze Haze  
Wind Chill: 30°   Ceiling: 3000
Heat Index: 36°   Visibility: 3mi
Dew Point: 34°   Wind: 7mph
Humidity: 93%   Direction: 270°W
Pressure: 29.91"   Gusts: NA
Location:  47.9°N, 33.38°E
Report Text: UKDR 202000Z 27003MPS 5000 BR OVC030 02/01 Q1013 1819//60 NOSIG
Loading
Personal Weather Stations






























Interactive Weather Map New forecast layout! Learn more

10-Day Weather Forecast

Advertisements
Track Severe Weather on mobile